createdAt,value
2023-01-21T00:00:30.958Z,21.13
2023-01-21T00:01:31.033Z,21.07
2023-01-21T00:02:31.003Z,21.07
2023-01-21T00:03:31.086Z,21.12
2023-01-21T04:51:39.713Z,20.80
2023-01-21T04:52:39.704Z,20.80
2023-01-21T04:53:39.691Z,20.78
2023-01-21T04:55:39.661Z,20.80
2023-01-21T04:56:39.647Z,20.75
2023-01-21T04:57:39.641Z,20.72
2023-01-21T04:58:39.630Z,20.75
2023-01-21T04:59:39.625Z,20.75
2023-01-21T05:00:39.617Z,20.77
2023-01-21T05:01:39.601Z,20.72
2023-01-21T05:02:39.649Z,20.73
2023-01-21T05:03:39.604Z,20.80
2023-01-21T05:04:39.576Z,20.77
2023-01-21T05:05:39.585Z,20.77
2023-01-21T05:06:39.561Z,20.75
2023-01-21T05:07:39.552Z,20.75
2023-01-21T05:08:39.542Z,20.72
2023-01-21T05:09:39.548Z,20.70
2023-01-21T05:10:39.540Z,20.78
2023-01-21T05:11:39.512Z,20.75
2023-01-21T05:12:39.497Z,20.72
2023-01-21T05:13:39.481Z,20.72
2023-01-21T05:14:39.481Z,20.75
2023-01-21T05:15:39.500Z,20.73
2023-01-21T05:16:39.600Z,20.77
2023-01-21T05:17:39.440Z,20.78
2023-01-21T05:18:39.448Z,20.78
2023-01-21T05:19:39.430Z,20.77
2023-01-21T05:20:39.406Z,20.75
2023-01-21T05:21:39.394Z,20.75
2023-01-21T05:22:39.391Z,20.77
2023-01-21T05:23:39.388Z,20.77
2023-01-21T05:24:39.376Z,20.74
2023-01-21T05:25:39.351Z,20.80
2023-01-21T05:26:39.378Z,20.80
2023-01-21T05:27:39.349Z,20.82
2023-01-21T05:28:39.322Z,20.77
2023-01-21T05:29:39.342Z,20.82
2023-01-21T05:30:41.315Z,20.78
2023-01-21T05:31:39.448Z,20.74
2023-01-21T05:32:39.284Z,20.75
2023-01-21T05:33:39.285Z,20.75
2023-01-21T05:34:39.262Z,20.75
2023-01-21T05:35:39.252Z,20.77
2023-01-21T05:36:39.242Z,20.73
2023-01-21T05:37:39.234Z,20.79
2023-01-21T05:38:39.235Z,20.82
2023-01-21T05:39:39.191Z,20.83
2023-01-21T05:40:39.180Z,20.80
2023-01-21T05:41:39.154Z,20.78
2023-01-21T05:42:39.173Z,20.78
2023-01-21T05:43:39.136Z,20.82
2023-01-21T05:44:39.127Z,20.80
2023-01-21T05:45:39.107Z,20.80
2023-01-21T05:46:39.119Z,20.83
2023-01-21T05:47:39.084Z,20.80
2023-01-21T05:48:39.080Z,20.82
2023-01-21T09:55:35.535Z,20.73
2023-01-21T09:56:35.522Z,20.68
2023-01-21T09:57:35.494Z,20.71
2023-01-21T09:58:35.503Z,20.71
2023-01-21T09:59:35.459Z,20.66
2023-01-21T10:00:35.441Z,20.71
2023-01-21T10:01:35.440Z,20.66
2023-01-21T10:02:35.420Z,20.67
2023-01-21T10:03:35.401Z,20.68
2023-01-21T10:04:35.406Z,20.68
2023-01-21T10:05:35.379Z,20.69
2023-01-21T10:06:35.374Z,20.70
2023-01-21T10:07:35.345Z,20.70
2023-01-21T10:08:35.335Z,20.68
2023-01-21T10:09:35.323Z,20.65
2023-01-21T10:10:35.304Z,20.63
2023-01-21T10:11:35.308Z,20.70
2023-01-21T10:12:35.276Z,20.68
2023-01-21T10:13:35.272Z,20.67
2023-01-21T10:14:35.282Z,20.67
2023-01-21T10:15:35.242Z,20.70
2023-01-21T10:16:35.264Z,20.67
2023-01-21T10:17:35.209Z,20.67
2023-01-21T10:18:35.183Z,20.75
2023-01-21T10:19:35.171Z,20.71
2023-01-21T10:20:35.163Z,20.67
2023-01-21T10:21:35.143Z,20.68
2023-01-21T10:22:35.133Z,20.72
2023-01-21T10:23:35.131Z,20.76
2023-01-21T10:24:35.110Z,20.68
2023-01-21T10:25:35.090Z,20.75
2023-01-21T10:26:35.082Z,20.70
2023-01-21T10:27:35.057Z,20.70
2023-01-21T10:28:35.035Z,20.72
2023-01-21T10:30:35.208Z,20.70
2023-01-21T10:31:35.145Z,20.64
2023-01-21T10:32:34.971Z,20.69
2023-01-21T10:33:34.958Z,20.67
2023-01-21T10:34:34.943Z,20.72
2023-01-21T10:35:34.931Z,20.69
2023-01-21T10:36:35.484Z,20.64
2023-01-21T10:37:34.891Z,20.67
2023-01-21T10:38:34.875Z,20.73
2023-01-21T10:39:34.854Z,20.70
2023-01-21T10:40:34.862Z,20.70
2023-01-21T10:41:34.833Z,20.72
2023-01-21T10:42:34.804Z,20.69
2023-01-21T10:43:34.789Z,20.70
2023-01-21T10:44:34.777Z,20.72
2023-01-21T10:45:34.764Z,20.75
2023-01-21T10:46:34.777Z,20.67
2023-01-21T10:47:34.759Z,20.70
2023-01-21T10:48:34.710Z,20.69
2023-01-21T10:49:34.682Z,20.69
2023-01-21T10:50:34.677Z,20.72
2023-01-21T10:51:34.652Z,20.73
2023-01-21T10:52:34.653Z,20.73
2023-01-21T10:53:34.636Z,20.73
2023-01-21T10:54:34.620Z,20.70
2023-01-21T10:55:34.623Z,20.72
2023-01-21T10:56:34.589Z,20.70
2023-01-21T10:57:34.575Z,20.77
2023-01-21T10:58:34.560Z,20.69
2023-01-21T10:59:34.547Z,20.67
2023-01-21T11:00:34.521Z,20.75
2023-01-21T11:01:34.537Z,20.67
2023-01-21T11:02:34.528Z,20.70
2023-01-21T11:03:34.465Z,20.64
2023-01-21T11:04:34.437Z,20.72
2023-01-21T11:05:34.424Z,20.69
2023-01-21T11:06:34.418Z,20.67
2023-01-21T11:07:34.392Z,20.66
2023-01-21T11:08:34.419Z,20.67
2023-01-21T11:09:34.346Z,20.72
2023-01-21T11:10:34.311Z,20.69
2023-01-21T11:11:34.290Z,20.69
2023-01-21T11:12:34.271Z,20.64
2023-01-21T11:13:34.251Z,20.66
2023-01-21T11:14:34.241Z,20.69
2023-01-21T11:15:34.236Z,20.69
2023-01-21T11:16:34.184Z,20.72
2023-01-21T11:17:34.167Z,20.72
2023-01-21T11:18:34.176Z,20.74
2023-01-21T11:19:34.133Z,20.70
2023-01-21T11:20:34.115Z,20.70
2023-01-21T11:21:34.098Z,20.69
2023-01-21T11:22:34.082Z,20.72
2023-01-21T11:23:34.066Z,20.70
2023-01-21T11:24:34.047Z,20.70
2023-01-21T11:25:34.036Z,20.70
2023-01-21T11:26:34.030Z,20.62
2023-01-21T11:27:34.007Z,20.67
2023-01-21T11:28:33.983Z,20.72
2023-01-21T11:29:33.971Z,20.72
2023-01-21T11:30:58.272Z,20.70
2023-01-21T11:31:34.031Z,20.67
2023-01-21T11:32:33.910Z,20.72
2023-01-21T11:33:33.922Z,20.74
2023-01-21T11:34:34.008Z,20.72
2023-01-21T11:35:33.878Z,20.69
2023-01-21T11:36:33.864Z,20.71
2023-01-21T11:37:33.864Z,20.71
2023-01-21T11:38:33.875Z,20.75
2023-01-21T11:39:33.819Z,20.74
2023-01-21T11:40:33.804Z,20.75
2023-01-21T11:41:33.779Z,20.70
2023-01-21T11:42:33.790Z,20.64
2023-01-21T11:43:33.758Z,20.69
2023-01-21T11:44:33.737Z,20.67
2023-01-21T11:45:33.720Z,20.76
2023-01-21T11:46:33.764Z,20.71
2023-01-21T11:47:35.994Z,20.77
2023-01-21T11:48:33.659Z,20.74
2023-01-21T11:49:33.644Z,20.77
2023-01-21T11:50:33.654Z,20.71
2023-01-21T11:51:33.620Z,20.71
2023-01-21T11:52:33.603Z,20.72
2023-01-21T11:53:33.583Z,20.75
2023-01-21T11:54:33.565Z,20.72
2023-01-21T11:55:33.555Z,20.80
2023-01-21T11:56:33.543Z,20.80
2023-01-21T11:57:33.533Z,20.77
2023-01-21T11:58:33.507Z,20.77
2023-01-21T11:59:34.320Z,20.75
2023-01-21T12:00:33.472Z,20.77
2023-01-21T12:01:33.451Z,20.73
2023-01-21T12:02:33.477Z,20.75
2023-01-21T12:03:33.439Z,20.75
2023-01-21T12:04:33.406Z,20.80
2023-01-21T12:05:33.387Z,20.74
2023-01-21T12:06:36.096Z,20.82
2023-01-21T12:07:33.363Z,20.75
2023-01-21T12:08:33.353Z,20.75
2023-01-21T12:09:33.337Z,20.75
2023-01-21T12:10:33.315Z,20.77
2023-01-21T12:11:33.303Z,20.72
2023-01-21T12:12:33.288Z,20.80
2023-01-21T12:13:33.271Z,20.71
2023-01-21T12:14:33.262Z,20.75
2023-01-21T12:15:33.252Z,20.80
2023-01-21T12:16:33.267Z,20.72
2023-01-21T12:17:33.219Z,20.78
2023-01-21T12:18:33.193Z,20.78
2023-01-21T12:19:33.184Z,20.77
2023-01-21T12:20:33.169Z,20.80
2023-01-21T12:21:33.127Z,20.77
2023-01-21T12:22:33.137Z,20.75
2023-01-21T12:23:33.096Z,20.77
2023-01-21T12:24:33.082Z,20.75
2023-01-21T12:25:33.067Z,20.76
2023-01-21T12:26:33.059Z,20.80
2023-01-21T12:27:33.035Z,20.77
2023-01-21T12:28:33.027Z,20.78
2023-01-21T12:29:32.983Z,20.76
2023-01-21T12:30:33.007Z,20.72
2023-01-21T12:31:33.087Z,20.79
2023-01-21T12:32:32.926Z,20.79
2023-01-21T12:33:32.912Z,20.72
2023-01-21T12:34:32.887Z,20.79
2023-01-21T12:35:32.893Z,20.80
2023-01-21T12:36:32.839Z,20.80
2023-01-21T12:37:32.826Z,20.80
2023-01-21T12:38:32.832Z,20.77
2023-01-21T12:39:32.779Z,20.77
2023-01-21T12:40:32.767Z,20.76
2023-01-21T12:41:32.737Z,20.80
2023-01-21T12:42:32.724Z,20.77
2023-01-21T12:43:32.695Z,20.77
2023-01-21T12:44:32.684Z,20.76
2023-01-21T12:45:32.663Z,20.77
2023-01-21T12:46:32.714Z,20.79
2023-01-21T12:47:32.640Z,20.76
2023-01-21T12:48:32.619Z,20.82
2023-01-21T12:49:32.593Z,20.77
2023-01-21T12:50:32.571Z,20.80
2023-01-21T12:51:32.546Z,20.76
2023-01-21T12:52:32.530Z,20.80
2023-01-21T12:53:32.507Z,20.74
2023-01-21T12:54:32.522Z,20.79
2023-01-21T12:55:32.471Z,20.82
2023-01-21T12:56:32.457Z,20.80
2023-01-21T12:57:32.443Z,20.77
2023-01-21T12:58:32.422Z,20.79
2023-01-21T12:59:32.401Z,20.79
2023-01-21T13:00:32.400Z,20.79
2023-01-21T13:01:32.391Z,20.75
2023-01-21T13:02:32.344Z,20.79
2023-01-21T13:03:32.316Z,20.79
2023-01-21T13:04:32.303Z,20.79
2023-01-21T13:05:32.277Z,20.83
2023-01-21T13:06:51.881Z,20.84
2023-01-21T13:07:32.256Z,20.77
2023-01-21T13:08:32.211Z,20.77
2023-01-21T13:09:32.193Z,20.80
2023-01-21T13:10:32.226Z,20.80
2023-01-21T13:11:32.155Z,20.85
2023-01-21T13:12:32.139Z,20.80
2023-01-21T13:13:32.128Z,20.83
2023-01-21T13:14:32.096Z,20.90
2023-01-21T13:15:32.077Z,20.75
2023-01-21T13:16:32.213Z,20.80
2023-01-21T13:17:32.094Z,20.77
2023-01-21T13:18:32.018Z,20.81
2023-01-21T13:19:32.007Z,20.81
2023-01-21T13:20:31.985Z,20.82
2023-01-21T13:21:31.982Z,20.76
2023-01-21T13:22:31.953Z,20.74
2023-01-21T13:23:31.939Z,20.77
2023-01-21T13:24:31.920Z,20.80
2023-01-21T13:25:31.901Z,20.79
2023-01-21T13:26:31.920Z,20.88
2023-01-21T13:27:31.867Z,20.84
2023-01-21T13:28:31.862Z,20.83
2023-01-21T13:29:31.872Z,20.80
2023-01-21T13:30:31.828Z,20.79
2023-01-21T13:31:31.949Z,20.85
2023-01-21T13:32:31.808Z,20.83
2023-01-21T13:33:31.775Z,20.83
2023-01-21T13:34:31.759Z,20.85
2023-01-21T13:35:31.750Z,20.80
2023-01-21T13:36:31.711Z,20.80
2023-01-21T13:37:31.699Z,20.77
2023-01-21T13:38:31.689Z,20.83
2023-01-21T13:39:31.650Z,20.85
2023-01-21T13:40:31.629Z,20.86
2023-01-21T13:41:31.612Z,20.82
2023-01-21T13:42:31.629Z,20.86
2023-01-21T13:43:31.579Z,20.85
2023-01-21T13:44:31.551Z,20.86
2023-01-21T13:45:31.570Z,20.82
2023-01-21T13:46:31.520Z,20.90
2023-01-21T13:47:31.503Z,20.85
2023-01-21T13:48:31.502Z,20.86
2023-01-21T13:49:31.469Z,20.82
2023-01-21T13:50:31.461Z,20.82
2023-01-21T13:51:31.431Z,20.85
2023-01-21T13:52:31.402Z,20.86
2023-01-21T13:53:31.427Z,20.85
2023-01-21T13:54:31.381Z,20.83
2023-01-21T13:55:31.357Z,20.83
2023-01-21T13:56:31.346Z,20.82
2023-01-21T13:57:31.335Z,20.86
2023-01-21T13:58:31.337Z,20.85
2023-01-21T13:59:31.302Z,20.93
2023-01-21T14:00:31.277Z,20.80
2023-01-21T14:01:31.261Z,20.88
2023-01-21T14:02:31.245Z,20.83
2023-01-21T14:03:31.258Z,20.89
2023-01-21T14:04:31.205Z,20.86
2023-01-21T14:05:31.263Z,20.86
2023-01-21T14:06:31.176Z,20.89
2023-01-21T14:07:31.158Z,20.86
2023-01-21T14:08:31.179Z,20.83
2023-01-21T14:09:32.995Z,20.83
2023-01-21T14:10:31.125Z,20.82
2023-01-21T14:11:32.024Z,20.85
2023-01-21T14:12:31.088Z,20.86
2023-01-21T14:13:31.073Z,20.88
2023-01-21T14:14:31.075Z,20.86
2023-01-21T14:15:31.038Z,20.86
2023-01-21T14:16:31.055Z,20.91
2023-01-21T14:17:31.002Z,20.88
2023-01-21T14:18:30.982Z,20.81
2023-01-21T14:19:30.973Z,20.86
2023-01-21T14:20:30.958Z,20.81
2023-01-21T14:21:30.988Z,20.85
2023-01-21T14:22:30.941Z,20.85
2023-01-21T14:23:30.905Z,20.81
2023-01-21T14:24:30.897Z,20.88
2023-01-21T14:25:30.871Z,20.86
2023-01-21T14:26:30.849Z,20.88
2023-01-21T14:27:30.843Z,20.89
2023-01-21T14:28:30.811Z,20.89
2023-01-21T14:29:30.795Z,20.89
2023-01-21T14:30:30.889Z,20.91
2023-01-21T14:31:30.816Z,20.86
2023-01-21T14:32:30.775Z,20.88
2023-01-21T14:33:30.711Z,20.83
2023-01-21T14:34:30.702Z,20.83
2023-01-21T14:35:30.688Z,20.89
2023-01-21T14:36:30.677Z,20.86
2023-01-21T14:37:30.652Z,20.87
2023-01-21T14:38:30.643Z,20.88
2023-01-21T14:39:30.620Z,20.88
2023-01-21T14:40:30.622Z,20.87
2023-01-21T14:41:30.599Z,20.86
2023-01-21T14:42:30.589Z,20.86
2023-01-21T14:43:30.583Z,20.89
2023-01-21T14:44:30.567Z,20.89
2023-01-21T14:45:30.590Z,20.84
2023-01-21T14:46:30.562Z,20.86
2023-01-21T14:47:30.541Z,20.91
2023-01-21T14:48:30.524Z,20.89
2023-01-21T14:49:30.523Z,20.89
2023-01-21T14:50:30.476Z,20.87
2023-01-21T14:51:30.563Z,20.91
2023-01-21T14:52:30.456Z,20.89
2023-01-21T14:53:30.441Z,20.91
2023-01-21T14:54:30.437Z,20.86
2023-01-21T14:55:30.449Z,20.89
2023-01-21T14:56:30.402Z,20.86
2023-01-21T14:57:30.387Z,20.87
2023-01-21T14:58:30.369Z,20.89
2023-01-21T14:59:30.392Z,20.89
2023-01-21T15:00:30.350Z,20.89
2023-01-21T15:01:30.382Z,20.86
2023-01-21T15:02:30.437Z,20.89
2023-01-21T15:03:30.317Z,20.86
2023-01-21T15:04:30.283Z,20.84
2023-01-21T15:05:30.274Z,20.87
2023-01-21T15:06:30.268Z,20.87
2023-01-21T15:07:30.244Z,20.81
2023-01-21T15:08:30.233Z,20.86
2023-01-21T15:09:30.221Z,20.89
2023-01-21T15:10:30.198Z,20.83
2023-01-21T15:11:30.191Z,20.87
2023-01-21T15:12:30.164Z,20.87
2023-01-21T15:13:30.155Z,20.87
2023-01-21T15:14:30.167Z,20.91
2023-01-21T15:15:30.123Z,20.86
2023-01-21T15:16:30.173Z,20.90
2023-01-21T15:17:30.080Z,20.89
2023-01-21T15:18:30.123Z,20.87
2023-01-21T15:19:30.048Z,20.82
2023-01-21T15:20:30.039Z,20.83
2023-01-21T15:21:30.022Z,20.89
2023-01-21T15:22:30.030Z,20.90
2023-01-21T15:23:29.996Z,20.89
2023-01-21T15:24:29.985Z,20.89
2023-01-21T15:25:29.963Z,20.87
2023-01-21T15:26:29.944Z,20.88
2023-01-21T15:27:29.938Z,20.87
2023-01-21T15:28:29.921Z,20.89
2023-01-21T15:29:29.912Z,20.84
2023-01-21T15:30:30.018Z,20.85
2023-01-21T15:31:30.029Z,20.81
2023-01-21T15:32:29.865Z,20.85
2023-01-21T15:33:29.865Z,20.82
2023-01-21T15:34:29.857Z,20.89
2023-01-21T15:35:29.826Z,20.93
2023-01-21T15:36:29.806Z,20.89
2023-01-21T15:37:29.793Z,20.84
2023-01-21T15:38:29.791Z,20.85
2023-01-21T15:39:29.760Z,20.82
2023-01-21T15:40:29.739Z,20.87
2023-01-21T15:41:29.726Z,20.85
2023-01-21T15:42:29.711Z,20.84
2023-01-21T15:43:29.701Z,20.84
2023-01-21T15:44:32.060Z,20.79
2023-01-21T15:45:29.671Z,20.90
2023-01-21T15:46:29.659Z,20.87
2023-01-21T15:47:29.632Z,20.85
2023-01-21T15:48:40.820Z,20.87
2023-01-21T15:49:29.606Z,20.87
2023-01-21T15:50:29.671Z,20.84
2023-01-21T15:51:29.653Z,20.84
2023-01-21T15:52:29.554Z,20.85
2023-01-21T15:53:29.538Z,20.85
2023-01-21T15:54:29.532Z,20.84
2023-01-21T15:55:29.504Z,20.88
2023-01-21T15:56:29.494Z,20.85
2023-01-21T15:57:29.473Z,20.88
2023-01-21T15:58:29.456Z,20.85
2023-01-21T15:59:29.440Z,20.88
2023-01-21T16:00:29.483Z,20.85
2023-01-21T16:01:29.523Z,20.93
2023-01-21T16:02:29.427Z,20.82
2023-01-21T16:03:29.374Z,20.82
2023-01-21T16:04:29.368Z,20.87
2023-01-21T16:05:29.364Z,20.85
2023-01-21T16:06:29.356Z,20.82
2023-01-21T16:07:29.309Z,20.87
2023-01-21T16:08:29.293Z,20.90
2023-01-21T16:09:29.282Z,20.90
2023-01-21T16:10:29.264Z,20.85
2023-01-21T16:11:29.257Z,20.88
2023-01-21T16:12:29.240Z,20.87
2023-01-21T16:13:29.220Z,20.87
2023-01-21T16:14:29.207Z,20.85
2023-01-21T16:15:29.196Z,20.84
2023-01-21T16:16:29.175Z,20.84
2023-01-21T16:17:29.174Z,20.82
2023-01-21T16:18:29.155Z,20.84
2023-01-21T16:19:29.179Z,20.87
2023-01-21T16:20:30.665Z,20.82
2023-01-21T16:21:29.110Z,20.84
2023-01-21T16:22:29.123Z,20.87
2023-01-21T16:23:29.084Z,20.82
2023-01-21T16:24:29.073Z,20.82
2023-01-21T16:25:29.071Z,20.82
2023-01-21T16:26:31.267Z,20.87
2023-01-21T16:27:29.028Z,20.82
2023-01-21T16:28:29.016Z,20.80
2023-01-21T16:29:28.997Z,20.83
2023-01-21T16:30:29.059Z,20.76
2023-01-21T16:31:29.073Z,20.79
2023-01-21T16:32:28.997Z,20.81
2023-01-21T16:33:28.966Z,20.82
2023-01-21T16:34:28.907Z,20.84
2023-01-21T16:35:28.893Z,20.77
2023-01-21T16:36:28.879Z,20.77
2023-01-21T16:37:28.896Z,20.82
2023-01-21T16:38:28.857Z,20.77
2023-01-21T16:39:28.818Z,20.77
2023-01-21T16:40:28.798Z,20.81
2023-01-21T16:41:28.782Z,20.81
2023-01-21T16:42:28.761Z,20.79
2023-01-21T16:43:28.752Z,20.74
2023-01-21T16:44:28.721Z,20.79
2023-01-21T16:45:28.704Z,20.79
2023-01-21T16:46:28.722Z,20.79
2023-01-21T16:47:28.677Z,20.77
2023-01-21T16:48:28.655Z,20.81
2023-01-21T16:49:28.633Z,20.81
2023-01-21T16:50:28.614Z,20.82
2023-01-21T16:51:28.669Z,20.81
2023-01-21T16:52:28.581Z,20.76
2023-01-21T16:53:28.580Z,20.77
2023-01-21T16:54:28.579Z,20.77
2023-01-21T16:55:28.543Z,20.77
2023-01-21T16:56:28.524Z,20.77
2023-01-21T16:57:28.505Z,20.79
2023-01-21T16:58:28.493Z,20.79
2023-01-21T16:59:28.481Z,20.71
2023-01-21T17:00:28.460Z,20.84
2023-01-21T17:01:28.534Z,20.77
2023-01-21T17:02:28.538Z,20.77
2023-01-21T17:03:28.429Z,20.79
2023-01-21T17:04:28.404Z,20.82
2023-01-21T17:05:28.387Z,20.74
2023-01-21T17:06:28.378Z,20.72
2023-01-21T17:07:28.361Z,20.72
2023-01-21T17:08:28.390Z,20.76
2023-01-21T17:09:28.339Z,20.79
2023-01-21T17:10:28.356Z,20.76
2023-01-21T17:11:28.294Z,20.81
2023-01-21T17:12:28.289Z,20.77
2023-01-21T17:13:28.262Z,20.79
2023-01-21T17:14:28.246Z,20.79
2023-01-21T17:15:28.241Z,20.76
2023-01-21T17:16:28.295Z,20.74
2023-01-21T17:17:28.201Z,20.76
2023-01-21T17:18:28.179Z,20.79
2023-01-21T17:19:28.169Z,20.76
2023-01-21T17:20:28.142Z,20.74
2023-01-21T17:21:28.148Z,20.79
2023-01-21T17:22:28.111Z,20.77
2023-01-21T17:23:28.097Z,20.76
2023-01-21T17:24:28.073Z,20.74
2023-01-21T17:25:28.054Z,20.79
2023-01-21T17:26:28.082Z,20.77
2023-01-21T17:27:28.019Z,20.76
2023-01-21T17:28:28.008Z,20.71
2023-01-21T17:29:27.985Z,20.74
2023-01-21T17:30:27.975Z,20.74
2023-01-21T17:31:28.170Z,20.76
2023-01-21T17:32:27.941Z,20.76
2023-01-21T17:33:27.909Z,20.72
2023-01-21T17:34:27.892Z,20.74
2023-01-21T17:35:27.875Z,20.77
2023-01-21T17:36:27.861Z,20.77
2023-01-21T17:37:27.865Z,20.71
2023-01-21T17:38:27.821Z,20.69
2023-01-21T17:39:27.812Z,20.79
2023-01-21T17:40:27.783Z,20.74
2023-01-21T17:41:27.766Z,20.77
2023-01-21T17:42:27.774Z,20.76
2023-01-21T17:43:27.733Z,20.74
2023-01-21T17:44:27.718Z,20.69
2023-01-21T17:45:27.705Z,20.76
2023-01-21T17:46:27.791Z,20.77
2023-01-21T17:47:27.660Z,20.79
2023-01-21T17:48:27.644Z,20.76
2023-01-21T17:49:27.620Z,20.77
2023-01-21T17:50:27.620Z,20.76
2023-01-21T17:51:27.698Z,20.80
2023-01-21T17:52:27.583Z,20.69
2023-01-21T17:53:27.570Z,20.76
2023-01-21T17:54:27.556Z,20.79
2023-01-21T17:55:27.537Z,20.72
2023-01-21T17:56:27.565Z,20.74
2023-01-21T17:57:27.517Z,20.77
2023-01-21T17:58:27.525Z,20.72
2023-01-21T17:59:27.493Z,20.79
2023-01-21T18:00:27.468Z,20.77
2023-01-21T18:01:27.531Z,20.74
2023-01-21T18:02:27.508Z,20.74
2023-01-21T18:03:27.418Z,20.77
2023-01-21T18:04:27.406Z,20.74
2023-01-21T18:05:27.378Z,20.76
2023-01-21T18:06:27.369Z,20.76
2023-01-21T18:07:27.393Z,20.76
2023-01-21T18:08:27.331Z,20.71
2023-01-21T18:09:27.316Z,20.69
2023-01-21T18:10:27.292Z,20.76
2023-01-21T18:11:27.274Z,20.72
2023-01-21T18:12:27.267Z,20.74
2023-01-21T18:13:27.232Z,20.77
2023-01-21T18:14:27.245Z,20.77
2023-01-21T18:15:27.200Z,20.70
2023-01-21T18:16:27.239Z,20.72
2023-01-21T18:17:27.190Z,20.69
2023-01-21T18:18:27.168Z,20.66
2023-01-21T18:19:27.143Z,20.70
2023-01-21T18:20:27.125Z,20.77
2023-01-21T18:21:27.106Z,20.69
2023-01-21T18:22:27.147Z,20.69
2023-01-21T18:23:27.084Z,20.74
2023-01-21T18:24:27.129Z,20.77
2023-01-21T18:25:27.033Z,20.74
2023-01-21T18:26:27.018Z,20.70
2023-01-21T18:27:27.005Z,20.77
2023-01-21T18:28:27.004Z,20.68
2023-01-21T18:29:26.987Z,20.71
2023-01-21T18:30:27.012Z,20.71
2023-01-21T18:31:27.095Z,20.69
2023-01-21T18:32:26.918Z,20.66
2023-01-21T18:33:26.900Z,20.70
2023-01-21T18:34:26.885Z,20.72
2023-01-21T18:35:26.864Z,20.64
2023-01-21T18:36:26.846Z,20.67
2023-01-21T18:37:26.822Z,20.69
2023-01-21T18:38:26.815Z,20.69
2023-01-21T18:39:26.777Z,20.69
2023-01-21T18:40:26.764Z,20.69
2023-01-21T18:41:26.747Z,20.66
2023-01-21T18:42:26.728Z,20.69
2023-01-21T18:43:26.717Z,20.64
2023-01-21T18:44:26.695Z,20.67
2023-01-21T18:45:26.694Z,20.67
2023-01-21T18:46:26.748Z,20.67
2023-01-21T18:47:26.651Z,20.69
2023-01-21T18:48:26.626Z,20.67
2023-01-21T18:49:26.609Z,20.64
2023-01-21T18:50:26.624Z,20.66
2023-01-21T18:51:26.715Z,20.67
2023-01-21T18:52:26.571Z,20.67
2023-01-21T18:53:26.644Z,20.64
2023-01-21T18:54:26.594Z,20.67
2023-01-21T18:55:26.527Z,20.67
2023-01-21T18:56:26.520Z,20.70
2023-01-21T18:57:26.499Z,20.64
2023-01-21T18:58:26.493Z,20.64
2023-01-21T18:59:26.469Z,20.66
2023-01-21T19:00:26.477Z,20.66
2023-01-21T19:01:26.483Z,20.66
2023-01-21T19:02:26.504Z,20.67
2023-01-21T19:03:26.500Z,20.61
2023-01-21T19:04:26.400Z,20.62
2023-01-21T19:05:26.391Z,20.64
2023-01-21T19:06:26.378Z,20.67
2023-01-21T19:07:26.371Z,20.64
2023-01-21T19:08:26.350Z,20.64
2023-01-21T19:09:26.340Z,20.69
2023-01-21T19:10:26.317Z,20.67
2023-01-21T19:11:26.307Z,20.61
2023-01-21T19:12:26.310Z,20.61
2023-01-21T19:13:26.311Z,20.62
2023-01-21T19:14:26.276Z,20.62
2023-01-21T19:15:26.257Z,20.64
2023-01-21T19:16:26.290Z,20.67
2023-01-21T19:17:26.238Z,20.62
2023-01-21T19:18:26.259Z,20.67
2023-01-21T19:19:26.216Z,20.62
2023-01-21T19:20:26.191Z,20.57
2023-01-21T19:21:26.186Z,20.64
2023-01-21T19:22:26.173Z,20.66
2023-01-21T19:23:26.150Z,20.66
2023-01-21T19:24:26.140Z,20.64
2023-01-21T19:25:26.118Z,20.59
2023-01-21T19:26:26.105Z,20.61
2023-01-21T19:27:26.088Z,20.64
2023-01-21T19:28:26.084Z,20.62
2023-01-21T19:29:26.089Z,20.59
2023-01-21T19:30:26.071Z,20.61
2023-01-21T19:31:26.212Z,20.59
2023-01-21T19:32:26.052Z,20.64
2023-01-21T19:33:26.075Z,20.62
2023-01-21T19:34:26.055Z,20.53
2023-01-21T19:35:26.030Z,20.62
2023-01-21T19:36:26.022Z,20.57
2023-01-21T19:37:25.998Z,20.62
2023-01-21T19:38:25.989Z,20.64
2023-01-21T19:39:25.982Z,20.59
2023-01-21T19:40:25.969Z,20.56
2023-01-21T19:41:25.960Z,20.56
2023-01-21T19:42:25.948Z,20.57
2023-01-21T19:43:25.928Z,20.54
2023-01-21T19:44:25.916Z,20.59
2023-01-21T19:45:25.910Z,20.59
2023-01-21T19:46:25.949Z,20.57
2023-01-21T19:47:25.894Z,20.57
2023-01-21T19:48:25.886Z,20.59
2023-01-21T19:49:25.879Z,20.61
2023-01-21T19:50:25.893Z,20.54
2023-01-21T19:51:25.946Z,20.61
2023-01-21T19:52:25.843Z,20.59
2023-01-21T19:53:25.840Z,20.57
2023-01-21T19:54:25.869Z,20.61
2023-01-21T19:55:25.829Z,20.54
2023-01-21T19:56:25.827Z,20.51
2023-01-21T19:57:25.826Z,20.53
2023-01-21T19:58:25.815Z,20.56
2023-01-21T19:59:25.834Z,20.53
2023-01-21T20:00:25.854Z,20.56
2023-01-21T20:01:25.806Z,20.54
2023-01-21T20:02:25.774Z,20.61
2023-01-21T20:03:25.775Z,20.54
2023-01-21T20:04:25.748Z,20.53
2023-01-21T20:05:25.768Z,20.50
2023-01-21T20:06:25.748Z,20.51
2023-01-21T20:07:25.763Z,20.46
2023-01-21T20:08:25.698Z,20.48
2023-01-21T20:09:25.688Z,20.51
2023-01-21T20:10:25.680Z,20.54
2023-01-21T20:11:25.666Z,20.53
2023-01-21T20:12:25.644Z,20.53
2023-01-21T20:13:25.637Z,20.48
2023-01-21T20:14:25.622Z,20.51
2023-01-21T20:15:25.602Z,20.53
2023-01-21T20:16:25.603Z,20.53
2023-01-21T20:17:25.583Z,20.54
2023-01-21T20:18:25.572Z,20.53
2023-01-21T20:19:25.561Z,20.53
2023-01-21T20:20:25.545Z,20.51
2023-01-21T20:21:25.567Z,20.51
2023-01-21T20:22:25.548Z,20.48
2023-01-21T20:23:25.526Z,20.50
2023-01-21T20:24:25.497Z,20.48
2023-01-21T20:25:25.489Z,20.48
2023-01-21T20:26:25.469Z,20.46
2023-01-21T20:27:25.462Z,20.49
2023-01-21T20:28:25.447Z,20.45
2023-01-21T20:29:25.435Z,20.51
2023-01-21T20:30:25.428Z,20.53
2023-01-21T20:31:25.551Z,20.49
2023-01-21T20:32:25.381Z,20.50
2023-01-21T20:33:25.360Z,20.45
2023-01-21T20:34:25.374Z,20.51
2023-01-21T20:35:25.329Z,20.48
2023-01-21T20:36:25.311Z,20.43
2023-01-21T20:37:25.291Z,20.45
2023-01-21T20:38:25.306Z,20.49
2023-01-21T20:39:25.268Z,20.45
2023-01-21T20:40:25.283Z,20.45
2023-01-21T20:41:25.252Z,20.45
2023-01-21T20:42:27.247Z,20.45
2023-01-21T20:43:25.212Z,20.41
2023-01-21T20:44:25.229Z,20.41
2023-01-21T20:45:25.253Z,20.43
2023-01-21T20:46:25.174Z,20.48
2023-01-21T20:47:37.821Z,20.43
2023-01-21T20:48:25.340Z,20.46
2023-01-21T20:49:25.138Z,20.43
2023-01-21T20:50:25.130Z,20.48
2023-01-21T20:51:25.188Z,20.46
2023-01-21T20:52:25.103Z,20.45
2023-01-21T20:53:25.084Z,20.41
2023-01-21T20:54:25.106Z,20.43
2023-01-21T20:55:25.162Z,20.43
2023-01-21T20:56:25.047Z,20.40
2023-01-21T20:57:25.033Z,20.43
2023-01-21T20:58:25.019Z,20.40
2023-01-21T20:59:25.006Z,20.41
2023-01-21T21:00:25.003Z,20.45
2023-01-21T21:01:25.028Z,20.40
2023-01-21T21:02:25.032Z,20.38
2023-01-21T21:03:24.953Z,20.41
2023-01-21T21:04:24.974Z,20.38
2023-01-21T21:05:24.920Z,20.38
2023-01-21T21:06:24.902Z,20.43
2023-01-21T21:07:24.884Z,20.38
2023-01-21T21:08:24.882Z,20.38
2023-01-21T21:09:24.873Z,20.45
2023-01-21T21:10:24.871Z,20.38
2023-01-21T21:11:24.865Z,20.33
2023-01-21T21:12:24.825Z,20.35
2023-01-21T21:13:24.805Z,20.40
2023-01-21T21:14:24.803Z,20.41
2023-01-21T21:15:24.786Z,20.40
2023-01-21T21:16:24.846Z,20.35
2023-01-21T21:17:24.762Z,20.40
2023-01-21T21:18:24.757Z,20.36
2023-01-21T21:19:24.746Z,20.37
2023-01-21T21:20:24.739Z,20.33
2023-01-21T21:21:24.724Z,20.41
2023-01-21T21:22:24.697Z,20.40
2023-01-21T21:23:24.685Z,20.37
2023-01-21T21:24:24.685Z,20.40
2023-01-21T21:25:24.678Z,20.37
2023-01-21T21:26:24.709Z,20.35
2023-01-21T21:27:24.656Z,20.41
2023-01-21T21:28:24.643Z,20.37
2023-01-21T21:29:24.629Z,20.37
2023-01-21T21:30:24.633Z,20.38
2023-01-21T21:31:24.762Z,20.35
2023-01-21T21:32:24.602Z,20.37
2023-01-21T21:33:24.588Z,20.36
2023-01-21T21:34:24.581Z,20.32
2023-01-21T21:35:24.564Z,20.33
2023-01-21T21:36:24.708Z,20.35
2023-01-21T21:37:24.568Z,20.33
2023-01-21T21:38:24.541Z,20.35
2023-01-21T21:39:24.522Z,20.33
2023-01-21T21:40:24.606Z,20.30
2023-01-21T21:41:24.534Z,20.30
2023-01-21T21:42:24.508Z,20.25
2023-01-21T21:43:24.468Z,20.33
2023-01-21T21:44:24.454Z,20.32
2023-01-21T21:45:24.449Z,20.33
2023-01-21T21:46:24.416Z,20.32
2023-01-21T21:47:24.408Z,20.35